sensor_id;sensor_type;location;lat;lon;timestamp;temperature;humidity
29201;DHT22;16244;51.956;12.980;2024-03-23T00:55:48;7.80;99.90
29201;DHT22;16244;51.956;12.980;2024-03-23T00:58:15;7.80;99.90
29201;DHT22;16244;51.956;12.980;2024-03-23T01:00:44;7.80;99.90
29201;DHT22;16244;51.956;12.980;2024-03-23T01:03:12;7.70;99.90
29201;DHT22;16244;51.956;12.980;2024-03-23T01:05:38;7.70;99.90
29201;DHT22;16244;51.956;12.980;2024-03-23T01:08:07;7.70;99.90
29201;DHT22;16244;51.956;12.980;2024-03-23T01:10:35;7.70;99.90
29201;DHT22;16244;51.956;12.980;2024-03-23T01:13:03;7.70;99.90
29201;DHT22;16244;51.956;12.980;2024-03-23T01:15:30;7.70;99.90
29201;DHT22;16244;51.956;12.980;2024-03-23T01:17:58;7.80;99.90
29201;DHT22;16244;51.956;12.980;2024-03-23T01:20:24;7.80;99.90
29201;DHT22;16244;51.956;12.980;2024-03-23T01:22:53;7.80;99.90
29201;DHT22;16244;51.956;12.980;2024-03-23T01:25:20;7.80;99.90
29201;DHT22;16244;51.956;12.980;2024-03-23T01:27:49;7.80;99.90
29201;DHT22;16244;51.956;12.980;2024-03-23T01:30:15;7.90;99.90
29201;DHT22;16244;51.956;12.980;2024-03-23T01:32:43;7.90;99.90
29201;DHT22;16244;51.956;12.980;2024-03-23T01:35:10;7.80;99.90
29201;DHT22;16244;51.956;12.980;2024-03-23T01:37:38;7.70;99.90
29201;DHT22;16244;51.956;12.980;2024-03-23T01:40:05;7.70;99.90
29201;DHT22;16244;51.956;12.980;2024-03-23T01:42:34;7.70;99.90
29201;DHT22;16244;51.956;12.980;2024-03-23T01:45:05;7.80;99.90
29201;DHT22;16244;51.956;12.980;2024-03-23T01:47:34;7.90;99.90
29201;DHT22;16244;51.956;12.980;2024-03-23T01:50:01;7.80;99.90
29201;DHT22;16244;51.956;12.980;2024-03-23T01:52:29;7.90;99.90
29201;DHT22;16244;51.956;12.980;2024-03-23T01:54:56;7.90;99.90
29201;DHT22;16244;51.956;12.980;2024-03-23T01:57:24;7.90;99.90
29201;DHT22;16244;51.956;12.980;2024-03-23T01:59:51;7.80;99.90
29201;DHT22;16244;51.956;12.980;2024-03-23T02:02:21;7.90;99.90
29201;DHT22;16244;51.956;12.980;2024-03-23T02:04:47;8.00;99.90
29201;DHT22;16244;51.956;12.980;2024-03-23T02:07:15;8.00;99.90
29201;DHT22;16244;51.956;12.980;2024-03-23T02:09:41;8.10;99.90
29201;DHT22;16244;51.956;12.980;2024-03-23T02:12:09;8.10;99.90
29201;DHT22;16244;51.956;12.980;2024-03-23T02:14:36;8.10;99.90
29201;DHT22;16244;51.956;12.980;2024-03-23T02:17:04;8.10;99.90
29201;DHT22;16244;51.956;12.980;2024-03-23T02:19:32;8.10;99.90
29201;DHT22;16244;51.956;12.980;2024-03-23T02:22:00;8.20;99.90
29201;DHT22;16244;51.956;12.980;2024-03-23T02:24:29;8.00;99.90
29201;DHT22;16244;51.956;12.980;2024-03-23T02:26:56;7.90;99.90
29201;DHT22;16244;51.956;12.980;2024-03-23T02:29:23;7.90;99.90
29201;DHT22;16244;51.956;12.980;2024-03-23T02:31:52;7.90;99.90
29201;DHT22;16244;51.956;12.980;2024-03-23T02:34:18;7.80;99.90
29201;DHT22;16244;51.956;12.980;2024-03-23T02:36:46;7.80;99.90
29201;DHT22;16244;51.956;12.980;2024-03-23T02:39:13;7.90;99.90
29201;DHT22;16244;51.956;12.980;2024-03-23T02:41:42;7.90;99.90
29201;DHT22;16244;51.956;12.980;2024-03-23T02:44:09;7.90;99.90
29201;DHT22;16244;51.956;12.980;2024-03-23T02:46:38;8.00;99.90
29201;DHT22;16244;51.956;12.980;2024-03-23T02:49:04;8.00;99.90
29201;DHT22;16244;51.956;12.980;2024-03-23T02:51:33;8.10;99.90
29201;DHT22;16244;51.956;12.980;2024-03-23T02:54:00;8.20;99.90
29201;DHT22;16244;51.956;12.980;2024-03-23T02:56:27;8.20;99.90
29201;DHT22;16244;51.956;12.980;2024-03-23T02:58:55;8.30;99.90
29201;DHT22;16244;51.956;12.980;2024-03-23T03:01:23;8.20;99.90
29201;DHT22;16244;51.956;12.980;2024-03-23T03:03:49;8.20;99.90
29201;DHT22;16244;51.956;12.980;2024-03-23T03:06:23;8.20;99.90
29201;DHT22;16244;51.956;12.980;2024-03-23T03:08:50;8.10;99.90
29201;DHT22;16244;51.956;12.980;2024-03-23T03:11:17;7.90;99.90
29201;DHT22;16244;51.956;12.980;2024-03-23T03:13:44;8.00;99.90
29201;DHT22;16244;51.956;12.980;2024-03-23T03:16:13;8.00;99.90
29201;DHT22;16244;51.956;12.980;2024-03-23T03:18:39;8.00;99.90
29201;DHT22;16244;51.956;12.980;2024-03-23T03:21:07;8.10;99.90
29201;DHT22;16244;51.956;12.980;2024-03-23T03:23:37;8.00;99.90
29201;DHT22;16244;51.956;12.980;2024-03-23T03:26:04;7.90;99.90
29201;DHT22;16244;51.956;12.980;2024-03-23T03:28:31;7.70;99.90
29201;DHT22;16244;51.956;12.980;2024-03-23T03:30:59;7.50;99.90
29201;DHT22;16244;51.956;12.980;2024-03-23T03:33:27;7.50;99.90
29201;DHT22;16244;51.956;12.980;2024-03-23T03:35:56;7.60;99.90
29201;DHT22;16244;51.956;12.980;2024-03-23T03:38:23;7.70;99.90
29201;DHT22;16244;51.956;12.980;2024-03-23T03:40:51;7.70;99.90
29201;DHT22;16244;51.956;12.980;2024-03-23T03:43:19;7.80;99.90
29201;DHT22;16244;51.956;12.980;2024-03-23T03:45:51;7.80;99.90
29201;DHT22;16244;51.956;12.980;2024-03-23T03:48:18;7.70;99.90
29201;DHT22;16244;51.956;12.980;2024-03-23T03:50:47;7.80;99.90
29201;DHT22;16244;51.956;12.980;2024-03-23T03:53:13;7.80;99.90
29201;DHT22;16244;51.956;12.980;2024-03-23T03:55:41;7.80;99.90
29201;DHT22;16244;51.956;12.980;2024-03-23T03:58:08;7.80;99.90
29201;DHT22;16244;51.956;12.980;2024-03-23T04:00:35;7.80;99.90
29201;DHT22;16244;51.956;12.980;2024-03-23T04:03:02;7.70;99.90
29201;DHT22;16244;51.956;12.980;2024-03-23T04:05:30;7.70;99.90
29201;DHT22;16244;51.956;12.980;2024-03-23T04:07:58;7.60;99.90
29201;DHT22;16244;51.956;12.980;2024-03-23T04:10:25;7.60;99.90
29201;DHT22;16244;51.956;12.980;2024-03-23T04:12:53;7.60;99.90
29201;DHT22;16244;51.956;12.980;2024-03-23T04:15:22;7.60;99.90
29201;DHT22;16244;51.956;12.980;2024-03-23T04:17:48;7.70;99.90
29201;DHT22;16244;51.956;12.980;2024-03-23T04:20:16;7.80;99.90
29201;DHT22;16244;51.956;12.980;2024-03-23T04:22:43;7.80;99.90
29201;DHT22;16244;51.956;12.980;2024-03-23T04:25:13;7.70;99.90
29201;DHT22;16244;51.956;12.980;2024-03-23T04:27:40;7.60;99.90
29201;DHT22;16244;51.956;12.980;2024-03-23T04:30:09;7.40;99.90
29201;DHT22;16244;51.956;12.980;2024-03-23T04:32:37;7.60;99.90
29201;DHT22;16244;51.956;12.980;2024-03-23T04:35:08;7.70;99.90
29201;DHT22;16244;51.956;12.980;2024-03-23T04:37:36;7.70;99.90
29201;DHT22;16244;51.956;12.980;2024-03-23T04:40:04;7.80;99.90
29201;DHT22;16244;51.956;12.980;2024-03-23T04:42:34;7.80;99.90
29201;DHT22;16244;51.956;12.980;2024-03-23T04:45:02;7.60;99.90
29201;DHT22;16244;51.956;12.980;2024-03-23T04:47:30;7.40;99.90
29201;DHT22;16244;51.956;12.980;2024-03-23T04:49:58;7.40;99.90
29201;DHT22;16244;51.956;12.980;2024-03-23T04:52:27;7.50;99.90
29201;DHT22;16244;51.956;12.980;2024-03-23T04:54:54;7.50;99.90
29201;DHT22;16244;51.956;12.980;2024-03-23T04:57:22;7.40;99.90
29201;DHT22;16244;51.956;12.980;2024-03-23T04:59:50;7.30;99.90
29201;DHT22;16244;51.956;12.980;2024-03-23T05:02:18;7.30;99.90
29201;DHT22;16244;51.956;12.980;2024-03-23T05:04:44;7.40;99.90
29201;DHT22;16244;51.956;12.980;2024-03-23T05:07:12;7.40;99.90
29201;DHT22;16244;51.956;12.980;2024-03-23T05:09:39;7.50;99.90
29201;DHT22;16244;51.956;12.980;2024-03-23T05:12:07;7.40;99.90
29201;DHT22;16244;51.956;12.980;2024-03-23T05:14:33;7.40;99.90
29201;DHT22;16244;51.956;12.980;2024-03-23T05:17:02;7.40;99.90
29201;DHT22;16244;51.956;12.980;2024-03-23T05:19:29;7.30;99.90
29201;DHT22;16244;51.956;12.980;2024-03-23T05:21:59;7.20;99.90
29201;DHT22;16244;51.956;12.980;2024-03-23T05:24:26;7.10;99.90
29201;DHT22;16244;51.956;12.980;2024-03-23T05:26:53;7.10;99.90
29201;DHT22;16244;51.956;12.980;2024-03-23T05:29:20;7.10;99.90
29201;DHT22;16244;51.956;12.980;2024-03-23T05:31:51;7.10;99.90
29201;DHT22;16244;51.956;12.980;2024-03-23T05:34:19;7.10;99.90
29201;DHT22;16244;51.956;12.980;2024-03-23T05:36:47;7.10;99.90
29201;DHT22;16244;51.956;12.980;2024-03-23T05:39:15;7.00;99.90
29201;DHT22;16244;51.956;12.980;2024-03-23T05:41:44;7.10;99.90
29201;DHT22;16244;51.956;12.980;2024-03-23T05:44:10;7.10;99.90
29201;DHT22;16244;51.956;12.980;2024-03-23T05:46:38;7.10;99.90
29201;DHT22;16244;51.956;12.980;2024-03-23T05:49:05;7.00;99.90
29201;DHT22;16244;51.956;12.980;2024-03-23T05:51:33;7.10;99.90
29201;DHT22;16244;51.956;12.980;2024-03-23T05:54:00;7.10;99.90
29201;DHT22;16244;51.956;12.980;2024-03-23T05:56:28;7.10;99.90
29201;DHT22;16244;51.956;12.980;2024-03-23T05:58:54;7.10;99.90
29201;DHT22;16244;51.956;12.980;2024-03-23T06:01:22;7.00;99.90
29201;DHT22;16244;51.956;12.980;2024-03-23T06:03:48;7.00;99.90
29201;DHT22;16244;51.956;12.980;2024-03-23T06:06:16;6.90;99.90
29201;DHT22;16244;51.956;12.980;2024-03-23T06:08:46;6.90;99.90
29201;DHT22;16244;51.956;12.980;2024-03-23T06:11:16;7.00;99.90
29201;DHT22;16244;51.956;12.980;2024-03-23T06:13:43;7.00;99.90
29201;DHT22;16244;51.956;12.980;2024-03-23T06:16:12;6.90;99.90
29201;DHT22;16244;51.956;12.980;2024-03-23T06:18:40;6.90;99.90
29201;DHT22;16244;51.956;12.980;2024-03-23T06:21:14;6.90;99.90
29201;DHT22;16244;51.956;12.980;2024-03-23T06:23:41;6.80;99.90
29201;DHT22;16244;51.956;12.980;2024-03-23T06:26:15;6.80;99.90
29201;DHT22;16244;51.956;12.980;2024-03-23T06:28:42;6.80;99.90
29201;DHT22;16244;51.956;12.980;2024-03-23T06:31:09;6.80;99.90
29201;DHT22;16244;51.956;12.980;2024-03-23T06:33:37;6.80;99.90
29201;DHT22;16244;51.956;12.980;2024-03-23T06:36:05;6.80;99.90
29201;DHT22;16244;51.956;12.980;2024-03-23T06:38:33;6.70;99.90
29201;DHT22;16244;51.956;12.980;2024-03-23T06:41:02;6.70;99.90
29201;DHT22;16244;51.956;12.980;2024-03-23T06:43:31;6.50;99.90
29201;DHT22;16244;51.956;12.980;2024-03-23T06:45:58;6.50;99.90
29201;DHT22;16244;51.956;12.980;2024-03-23T06:48:25;6.50;99.90
29201;DHT22;16244;51.956;12.980;2024-03-23T06:50:56;6.50;99.90
29201;DHT22;16244;51.956;12.980;2024-03-23T06:53:23;6.50;99.90
29201;DHT22;16244;51.956;12.980;2024-03-23T06:55:53;6.40;99.90
29201;DHT22;16244;51.956;12.980;2024-03-23T06:58:21;6.50;99.90
29201;DHT22;16244;51.956;12.980;2024-03-23T07:00:50;6.40;99.90
29201;DHT22;16244;51.956;12.980;2024-03-23T07:03:16;6.40;99.90
29201;DHT22;16244;51.956;12.980;2024-03-23T07:05:45;6.40;99.90
29201;DHT22;16244;51.956;12.980;2024-03-23T07:08:12;6.40;99.90
29201;DHT22;16244;51.956;12.980;2024-03-23T07:10:45;6.40;99.90
29201;DHT22;16244;51.956;12.980;2024-03-23T07:13:11;6.40;99.90
29201;DHT22;16244;51.956;12.980;2024-03-23T07:15:39;6.40;99.90
29201;DHT22;16244;51.956;12.980;2024-03-23T07:18:06;6.30;99.90
29201;DHT22;16244;51.956;12.980;2024-03-23T07:20:34;6.30;99.90
29201;DHT22;16244;51.956;12.980;2024-03-23T07:23:01;6.30;99.90
29201;DHT22;16244;51.956;12.980;2024-03-23T07:25:28;6.30;99.90
29201;DHT22;16244;51.956;12.980;2024-03-23T07:27:55;6.20;99.90
29201;DHT22;16244;51.956;12.980;2024-03-23T07:30:26;6.20;99.90
29201;DHT22;16244;51.956;12.980;2024-03-23T07:32:53;6.20;99.90
29201;DHT22;16244;51.956;12.980;2024-03-23T07:35:21;6.20;99.90
29201;DHT22;16244;51.956;12.980;2024-03-23T07:37:48;6.10;99.90
29201;DHT22;16244;51.956;12.980;2024-03-23T07:40:18;6.00;99.90
29201;DHT22;16244;51.956;12.980;2024-03-23T07:42:44;6.00;99.90
29201;DHT22;16244;51.956;12.980;2024-03-23T07:45:12;6.10;99.90
29201;DHT22;16244;51.956;12.980;2024-03-23T07:47:39;6.00;99.90
29201;DHT22;16244;51.956;12.980;2024-03-23T07:50:07;5.90;99.90
29201;DHT22;16244;51.956;12.980;2024-03-23T07:52:35;5.90;99.90
29201;DHT22;16244;51.956;12.980;2024-03-23T07:55:03;5.90;99.90
29201;DHT22;16244;51.956;12.980;2024-03-23T07:57:30;5.90;99.90
29201;DHT22;16244;51.956;12.980;2024-03-23T07:59:57;5.90;99.90
29201;DHT22;16244;51.956;12.980;2024-03-23T08:02:24;5.90;99.90
29201;DHT22;16244;51.956;12.980;2024-03-23T08:04:51;5.90;99.90
29201;DHT22;16244;51.956;12.980;2024-03-23T08:07:18;5.80;99.90
29201;DHT22;16244;51.956;12.980;2024-03-23T08:09:47;5.70;99.90
29201;DHT22;16244;51.956;12.980;2024-03-23T08:12:13;5.70;99.90
29201;DHT22;16244;51.956;12.980;2024-03-23T08:14:41;5.60;99.90
29201;DHT22;16244;51.956;12.980;2024-03-23T08:17:10;5.60;99.90
29201;DHT22;16244;51.956;12.980;2024-03-23T08:19:38;5.60;99.90
29201;DHT22;16244;51.956;12.980;2024-03-23T08:22:04;5.60;99.90
29201;DHT22;16244;51.956;12.980;2024-03-23T08:24:32;5.50;99.90
29201;DHT22;16244;51.956;12.980;2024-03-23T08:27:02;5.40;99.90
29201;DHT22;16244;51.956;12.980;2024-03-23T08:29:31;5.40;99.90
29201;DHT22;16244;51.956;12.980;2024-03-23T08:31:57;5.20;99.90
29201;DHT22;16244;51.956;12.980;2024-03-23T08:34:27;5.20;99.90
29201;DHT22;16244;51.956;12.980;2024-03-23T08:36:53;5.10;99.90
29201;DHT22;16244;51.956;12.980;2024-03-23T08:39:21;4.90;99.90
29201;DHT22;16244;51.956;12.980;2024-03-23T08:41:48;4.90;99.90
29201;DHT22;16244;51.956;12.980;2024-03-23T08:44:19;4.90;99.90
29201;DHT22;16244;51.956;12.980;2024-03-23T08:46:45;4.90;99.90
29201;DHT22;16244;51.956;12.980;2024-03-23T08:49:13;4.80;99.90
29201;DHT22;16244;51.956;12.980;2024-03-23T08:51:40;4.90;99.90
29201;DHT22;16244;51.956;12.980;2024-03-23T08:54:08;4.90;99.90
29201;DHT22;16244;51.956;12.980;2024-03-23T08:56:35;4.90;99.90
29201;DHT22;16244;51.956;12.980;2024-03-23T08:59:02;5.10;99.90
29201;DHT22;16244;51.956;12.980;2024-03-23T09:01:31;5.10;99.90
29201;DHT22;16244;51.956;12.980;2024-03-23T09:03:58;5.10;99.90
29201;DHT22;16244;51.956;12.980;2024-03-23T09:06:25;5.00;99.90
29201;DHT22;16244;51.956;12.980;2024-03-23T09:08:52;5.10;99.90
29201;DHT22;16244;51.956;12.980;2024-03-23T09:11:19;5.00;99.90
29201;DHT22;16244;51.956;12.980;2024-03-23T09:13:46;5.00;99.90
29201;DHT22;16244;51.956;12.980;2024-03-23T09:16:13;4.90;99.90
29201;DHT22;16244;51.956;12.980;2024-03-23T09:18:42;5.00;99.90
29201;DHT22;16244;51.956;12.980;2024-03-23T09:21:11;4.90;99.90
29201;DHT22;16244;51.956;12.980;2024-03-23T09:23:43;4.80;99.90
29201;DHT22;16244;51.956;12.980;2024-03-23T09:26:10;4.80;99.90
29201;DHT22;16244;51.956;12.980;2024-03-23T09:28:37;4.80;99.90
29201;DHT22;16244;51.956;12.980;2024-03-23T09:31:04;4.70;99.90
29201;DHT22;16244;51.956;12.980;2024-03-23T09:33:32;4.70;99.90
29201;DHT22;16244;51.956;12.980;2024-03-23T09:36:03;4.70;99.90
29201;DHT22;16244;51.956;12.980;2024-03-23T09:38:30;4.70;99.90
29201;DHT22;16244;51.956;12.980;2024-03-23T09:40:58;4.60;99.90
29201;DHT22;16244;51.956;12.980;2024-03-23T09:43:25;4.50;99.90
29201;DHT22;16244;51.956;12.980;2024-03-23T09:45:53;4.50;99.90
29201;DHT22;16244;51.956;12.980;2024-03-23T09:48:20;4.50;99.90
29201;DHT22;16244;51.956;12.980;2024-03-23T09:50:47;4.50;99.90
29201;DHT22;16244;51.956;12.980;2024-03-23T09:53:16;4.50;99.90
29201;DHT22;16244;51.956;12.980;2024-03-23T09:55:44;4.60;99.90
29201;DHT22;16244;51.956;12.980;2024-03-23T09:58:13;4.60;99.90
29201;DHT22;16244;51.956;12.980;2024-03-23T10:00:39;4.70;99.90
29201;DHT22;16244;51.956;12.980;2024-03-23T10:03:07;4.70;99.90
29201;DHT22;16244;51.956;12.980;2024-03-23T10:05:35;4.70;99.90
29201;DHT22;16244;51.956;12.980;2024-03-23T10:08:18;4.70;99.90
29201;DHT22;16244;51.956;12.980;2024-03-23T10:10:46;4.60;99.90
29201;DHT22;16244;51.956;12.980;2024-03-23T10:13:24;4.40;99.90
29201;DHT22;16244;51.956;12.980;2024-03-23T10:15:56;4.40;99.90
29201;DHT22;16244;51.956;12.980;2024-03-23T10:18:24;4.50;99.90
29201;DHT22;16244;51.956;12.980;2024-03-23T10:21:00;4.40;99.90
29201;DHT22;16244;51.956;12.980;2024-03-23T10:23:33;4.60;99.90
29201;DHT22;16244;51.956;12.980;2024-03-23T10:26:16;4.50;99.90
29201;DHT22;16244;51.956;12.980;2024-03-23T10:28:53;4.50;99.90
29201;DHT22;16244;51.956;12.980;2024-03-23T10:31:21;4.50;99.90
29201;DHT22;16244;51.956;12.980;2024-03-23T10:33:48;4.50;99.90
29201;DHT22;16244;51.956;12.980;2024-03-23T10:36:16;4.60;99.90
29201;DHT22;16244;51.956;12.980;2024-03-23T10:38:44;4.70;99.90
29201;DHT22;16244;51.956;12.980;2024-03-23T10:41:12;4.80;99.90
29201;DHT22;16244;51.956;12.980;2024-03-23T10:43:39;4.80;99.90
29201;DHT22;16244;51.956;12.980;2024-03-23T10:46:06;4.80;99.90
29201;DHT22;16244;51.956;12.980;2024-03-23T10:48:34;4.80;99.90
29201;DHT22;16244;51.956;12.980;2024-03-23T10:51:02;4.80;99.90
29201;DHT22;16244;51.956;12.980;2024-03-23T10:53:28;4.90;99.90
29201;DHT22;16244;51.956;12.980;2024-03-23T10:55:57;4.90;99.90
29201;DHT22;16244;51.956;12.980;2024-03-23T10:58:27;4.80;99.90
29201;DHT22;16244;51.956;12.980;2024-03-23T11:00:56;4.80;99.90
29201;DHT22;16244;51.956;12.980;2024-03-23T11:03:37;4.80;99.90
29201;DHT22;16244;51.956;12.980;2024-03-23T11:06:05;4.90;99.90
29201;DHT22;16244;51.956;12.980;2024-03-23T11:08:33;5.00;99.90
29201;DHT22;16244;51.956;12.980;2024-03-23T11:11:17;5.10;99.90
29201;DHT22;16244;51.956;12.980;2024-03-23T11:13:44;5.20;99.90
29201;DHT22;16244;51.956;12.980;2024-03-23T11:16:16;5.30;99.90
29201;DHT22;16244;51.956;12.980;2024-03-23T11:18:43;5.40;99.90
29201;DHT22;16244;51.956;12.980;2024-03-23T11:21:11;5.40;99.90
29201;DHT22;16244;51.956;12.980;2024-03-23T11:24:13;5.50;99.90
29201;DHT22;16244;51.956;12.980;2024-03-23T11:26:42;5.60;99.90
29201;DHT22;16244;51.956;12.980;2024-03-23T11:29:09;5.60;99.90
29201;DHT22;16244;51.956;12.980;2024-03-23T11:31:36;5.60;99.90
29201;DHT22;16244;51.956;12.980;2024-03-23T11:34:04;5.70;99.90
29201;DHT22;16244;51.956;12.980;2024-03-23T11:36:32;5.70;99.90
29201;DHT22;16244;51.956;12.980;2024-03-23T11:38:59;5.70;99.90
29201;DHT22;16244;51.956;12.980;2024-03-23T11:41:47;5.80;99.90
29201;DHT22;16244;51.956;12.980;2024-03-23T11:44:15;6.00;99.90
29201;DHT22;16244;51.956;12.980;2024-03-23T11:46:43;6.10;99.90
29201;DHT22;16244;51.956;12.980;2024-03-23T11:49:23;6.00;99.90
29201;DHT22;16244;51.956;12.980;2024-03-23T11:51:51;6.00;99.90
29201;DHT22;16244;51.956;12.980;2024-03-23T11:54:20;6.10;99.90
29201;DHT22;16244;51.956;12.980;2024-03-23T11:56:56;6.10;99.90
29201;DHT22;16244;51.956;12.980;2024-03-23T11:59:33;6.10;99.90
29201;DHT22;16244;51.956;12.980;2024-03-23T12:02:06;6.30;99.90
29201;DHT22;16244;51.956;12.980;2024-03-23T12:04:32;6.40;99.90
29201;DHT22;16244;51.956;12.980;2024-03-23T12:07:12;6.50;99.90
29201;DHT22;16244;51.956;12.980;2024-03-23T12:09:39;6.70;99.90
29201;DHT22;16244;51.956;12.980;2024-03-23T12:12:14;6.70;99.90
29201;DHT22;16244;51.956;12.980;2024-03-23T12:14:41;6.90;99.90
29201;DHT22;16244;51.956;12.980;2024-03-23T12:17:13;6.90;99.90
29201;DHT22;16244;51.956;12.980;2024-03-23T12:19:41;7.10;99.90
29201;DHT22;16244;51.956;12.980;2024-03-23T12:22:09;7.30;99.90
29201;DHT22;16244;51.956;12.980;2024-03-23T12:24:36;7.50;99.90
29201;DHT22;16244;51.956;12.980;2024-03-23T12:27:05;7.70;99.90
29201;DHT22;16244;51.956;12.980;2024-03-23T12:29:33;7.80;99.90
29201;DHT22;16244;51.956;12.980;2024-03-23T12:32:02;8.00;99.90
29201;DHT22;16244;51.956;12.980;2024-03-23T12:34:29;8.10;99.90
29201;DHT22;16244;51.956;12.980;2024-03-23T12:36:57;8.20;99.90
29201;DHT22;16244;51.956;12.980;2024-03-23T12:39:24;8.10;99.90
29201;DHT22;16244;51.956;12.980;2024-03-23T12:41:51;8.00;99.90
29201;DHT22;16244;51.956;12.980;2024-03-23T12:44:19;8.00;99.90
29201;DHT22;16244;51.956;12.980;2024-03-23T12:46:48;7.90;99.90
29201;DHT22;16244;51.956;12.980;2024-03-23T12:49:15;8.10;99.90
29201;DHT22;16244;51.956;12.980;2024-03-23T12:51:52;8.20;99.90
29201;DHT22;16244;51.956;12.980;2024-03-23T12:54:19;8.30;99.90
29201;DHT22;16244;51.956;12.980;2024-03-23T12:56:49;8.20;99.90
29201;DHT22;16244;51.956;12.980;2024-03-23T12:59:15;8.20;99.90
29201;DHT22;16244;51.956;12.980;2024-03-23T13:01:44;7.90;99.90
29201;DHT22;16244;51.956;12.980;2024-03-23T13:04:12;7.80;99.90
29201;DHT22;16244;51.956;12.980;2024-03-23T13:10:21;7.80;99.90
29201;DHT22;16244;51.956;12.980;2024-03-23T13:12:50;7.70;99.90
29201;DHT22;16244;51.956;12.980;2024-03-23T13:15:17;7.70;99.90
29201;DHT22;16244;51.956;12.980;2024-03-23T13:17:46;7.80;99.90
29201;DHT22;16244;51.956;12.980;2024-03-23T13:20:14;7.80;99.90
29201;DHT22;16244;51.956;12.980;2024-03-23T13:22:43;7.70;99.90
29201;DHT22;16244;51.956;12.980;2024-03-23T13:25:10;7.50;99.90
29201;DHT22;16244;51.956;12.980;2024-03-23T13:27:39;7.50;99.90
29201;DHT22;16244;51.956;12.980;2024-03-23T13:30:08;7.40;99.90
29201;DHT22;16244;51.956;12.980;2024-03-23T13:32:36;7.30;99.90
29201;DHT22;16244;51.956;12.980;2024-03-23T13:35:07;7.40;99.90
29201;DHT22;16244;51.956;12.980;2024-03-23T13:37:37;7.40;99.90
29201;DHT22;16244;51.956;12.980;2024-03-23T13:40:06;7.40;99.90
29201;DHT22;16244;51.956;12.980;2024-03-23T13:42:35;7.30;99.90
29201;DHT22;16244;51.956;12.980;2024-03-23T13:45:02;7.30;99.90
29201;DHT22;16244;51.956;12.980;2024-03-23T13:47:31;7.30;99.90
29201;DHT22;16244;51.956;12.980;2024-03-23T13:49:58;7.30;99.90
29201;DHT22;16244;51.956;12.980;2024-03-23T13:52:26;7.30;99.90
29201;DHT22;16244;51.956;12.980;2024-03-23T13:54:55;7.40;99.90
29201;DHT22;16244;51.956;12.980;2024-03-23T13:57:23;7.40;99.90
29201;DHT22;16244;51.956;12.980;2024-03-23T13:59:53;7.50;99.90
29201;DHT22;16244;51.956;12.980;2024-03-23T14:02:21;7.50;99.90
29201;DHT22;16244;51.956;12.980;2024-03-23T14:04:48;7.60;99.90
29201;DHT22;16244;51.956;12.980;2024-03-23T14:07:16;7.60;99.90
29201;DHT22;16244;51.956;12.980;2024-03-23T14:09:46;7.70;99.90
29201;DHT22;16244;51.956;12.980;2024-03-23T14:12:15;7.90;99.90
29201;DHT22;16244;51.956;12.980;2024-03-23T14:14:44;7.90;99.90
29201;DHT22;16244;51.956;12.980;2024-03-23T14:17:12;8.10;99.90
29201;DHT22;16244;51.956;12.980;2024-03-23T14:19:42;8.10;99.90
29201;DHT22;16244;51.956;12.980;2024-03-23T14:22:11;8.10;99.90
29201;DHT22;16244;51.956;12.980;2024-03-23T14:24:38;8.20;99.90
29201;DHT22;16244;51.956;12.980;2024-03-23T14:27:06;8.20;99.90
29201;DHT22;16244;51.956;12.980;2024-03-23T14:29:35;8.20;99.90
29201;DHT22;16244;51.956;12.980;2024-03-23T14:32:03;8.10;99.50
29201;DHT22;16244;51.956;12.980;2024-03-23T14:34:31;8.00;99.90
29201;DHT22;16244;51.956;12.980;2024-03-23T14:37:00;8.00;99.90
29201;DHT22;16244;51.956;12.980;2024-03-23T14:39:27;8.00;99.90
29201;DHT22;16244;51.956;12.980;2024-03-23T14:41:55;7.90;99.90
29201;DHT22;16244;51.956;12.980;2024-03-23T14:44:23;7.60;96.30
29201;DHT22;16244;51.956;12.980;2024-03-23T14:46:52;7.30;94.60
29201;DHT22;16244;51.956;12.980;2024-03-23T14:49:19;7.40;93.80
29201;DHT22;16244;51.956;12.980;2024-03-23T14:51:47;7.50;95.10
29201;DHT22;16244;51.956;12.980;2024-03-23T14:54:15;7.70;93.70
29201;DHT22;16244;51.956;12.980;2024-03-23T14:56:42;7.70;92.20
29201;DHT22;16244;51.956;12.980;2024-03-23T14:59:09;7.80;93.00
29201;DHT22;16244;51.956;12.980;2024-03-23T15:01:37;7.80;93.60
29201;DHT22;16244;51.956;12.980;2024-03-23T15:04:05;7.60;93.30
29201;DHT22;16244;51.956;12.980;2024-03-23T15:06:33;7.50;95.40
29201;DHT22;16244;51.956;12.980;2024-03-23T15:09:01;7.30;95.50
29201;DHT22;16244;51.956;12.980;2024-03-23T15:11:33;7.20;97.50
29201;DHT22;16244;51.956;12.980;2024-03-23T15:14:01;7.10;97.90
29201;DHT22;16244;51.956;12.980;2024-03-23T15:16:29;7.10;98.60
29201;DHT22;16244;51.956;12.980;2024-03-23T15:18:56;7.00;99.90
29201;DHT22;16244;51.956;12.980;2024-03-23T15:21:27;6.90;99.90
29201;DHT22;16244;51.956;12.980;2024-03-23T15:23:54;6.80;99.90
29201;DHT22;16244;51.956;12.980;2024-03-23T15:26:22;6.80;99.90
29201;DHT22;16244;51.956;12.980;2024-03-23T15:28:50;6.80;99.90
29201;DHT22;16244;51.956;12.980;2024-03-23T15:31:33;6.50;99.90
29201;DHT22;16244;51.956;12.980;2024-03-23T15:34:01;6.50;99.90
29201;DHT22;16244;51.956;12.980;2024-03-23T15:36:30;6.40;99.90
29201;DHT22;16244;51.956;12.980;2024-03-23T15:38:58;6.40;99.90
29201;DHT22;16244;51.956;12.980;2024-03-23T15:41:25;6.70;99.90
29201;DHT22;16244;51.956;12.980;2024-03-23T15:43:54;7.10;99.90
29201;DHT22;16244;51.956;12.980;2024-03-23T15:46:21;7.30;99.90
29201;DHT22;16244;51.956;12.980;2024-03-23T15:48:49;7.40;99.90
29201;DHT22;16244;51.956;12.980;2024-03-23T15:51:17;7.50;99.90
29201;DHT22;16244;51.956;12.980;2024-03-23T15:53:47;7.60;99.90
29201;DHT22;16244;51.956;12.980;2024-03-23T15:56:15;7.50;99.90
29201;DHT22;16244;51.956;12.980;2024-03-23T15:58:43;7.50;99.90
29201;DHT22;16244;51.956;12.980;2024-03-23T16:01:10;7.60;99.90
29201;DHT22;16244;51.956;12.980;2024-03-23T16:03:38;7.60;99.90
29201;DHT22;16244;51.956;12.980;2024-03-23T16:06:06;7.50;99.90
29201;DHT22;16244;51.956;12.980;2024-03-23T16:08:34;7.30;99.90
29201;DHT22;16244;51.956;12.980;2024-03-23T16:11:04;7.10;99.90
29201;DHT22;16244;51.956;12.980;2024-03-23T16:13:33;6.80;99.90
29201;DHT22;16244;51.956;12.980;2024-03-23T16:16:02;6.70;99.90
29201;DHT22;16244;51.956;12.980;2024-03-23T16:18:33;6.60;99.90
29201;DHT22;16244;51.956;12.980;2024-03-23T16:21:02;6.50;99.90
29201;DHT22;16244;51.956;12.980;2024-03-23T16:23:32;6.50;99.90
29201;DHT22;16244;51.956;12.980;2024-03-23T16:26:01;6.40;99.90
29201;DHT22;16244;51.956;12.980;2024-03-23T16:28:31;6.30;99.90
29201;DHT22;16244;51.956;12.980;2024-03-23T16:31:00;6.30;99.90
29201;DHT22;16244;51.956;12.980;2024-03-23T16:33:28;6.30;99.90
29201;DHT22;16244;51.956;12.980;2024-03-23T16:35:58;6.30;99.90